EVV weather

Evansville Regional Airport
Evansville, Indiana, United States

Public forecast

Using degrees Fahrenheit for public forecast. Weather courtesy of forecast.io.

Current aviation weather report (METAR) for Evansville Regional Airport

Retrieved 2020/04/03 07:54 UTC (37 minutes ago):

KEVV 030754Z AUTO 00000KT 10SM CLR 11/06 A3007 RMK AO2 SLP182 T01060061

Aviation forecast (TAF) for Evansville Regional Airport

Retrieved 2020/04/03 06:22 UTC (2 hours ago):

TAF KEVV 030520Z 0306/0406 VRB03KT P6SM BKN200 FM031400 14005KT P6SM SCT090 SCT200 FM032100 17006KT P6SM SCT035 BKN090 FM040000 14004KT P6SM BKN035